createdAt,value
2023-03-26T00:04:07.182Z,99486.41
2023-03-26T00:09:30.643Z,99482.89
2023-03-26T00:14:53.392Z,99490.64
2023-03-26T00:20:15.787Z,99478.40
2023-03-26T00:25:40.113Z,99470.65
2023-03-26T00:31:07.578Z,99469.42
2023-03-26T00:36:31.601Z,99462.73
2023-03-26T00:41:54.903Z,99457.27
2023-03-26T00:47:17.674Z,99452.66
2023-03-26T00:52:40.431Z,99446.94
2023-03-26T00:58:02.809Z,99451.42
2023-03-26T01:03:28.745Z,99442.70
2023-03-26T01:08:57.017Z,99438.94
2023-03-26T01:14:27.010Z,99427.30
2023-03-26T01:20:02.931Z,99419.05
2023-03-26T01:25:25.579Z,99418.08
2023-03-26T01:31:00.412Z,99429.63
2023-03-26T01:36:39.670Z,99421.25
2023-03-26T01:42:08.631Z,99421.97
2023-03-26T01:47:34.033Z,99418.83
2023-03-26T01:52:56.375Z,99418.92
2023-03-26T01:58:32.507Z,99423.41
2023-03-26T02:03:59.603Z,99422.81
2023-03-26T02:09:32.547Z,99412.02
2023-03-26T02:14:55.339Z,99420.66
2023-03-26T02:20:19.680Z,99407.91
2023-03-26T02:25:44.118Z,99392.88
2023-03-26T02:31:06.523Z,99408.16
2023-03-26T02:36:30.231Z,99401.73
2023-03-26T02:41:53.784Z,99395.17
2023-03-26T02:47:16.305Z,99396.67
2023-03-26T02:52:38.583Z,99397.39
2023-03-26T02:58:00.817Z,99386.47
2023-03-26T03:03:24.558Z,99387.22
2023-03-26T03:08:47.622Z,99371.20
2023-03-26T03:14:10.569Z,99372.05
2023-03-26T03:19:33.365Z,99373.75
2023-03-26T03:24:57.226Z,99371.80
2023-03-26T03:30:21.184Z,99370.11
2023-03-26T03:35:46.208Z,99362.23
2023-03-26T03:41:08.537Z,99365.48
2023-03-26T03:46:31.356Z,99362.47
2023-03-26T03:51:53.643Z,99367.67
2023-03-26T03:57:16.490Z,99360.38
2023-03-26T04:02:39.314Z,99365.84
2023-03-26T04:08:01.907Z,99360.87
2023-03-26T04:13:25.294Z,99361.72
2023-03-26T04:18:48.455Z,99360.64
2023-03-26T04:24:11.387Z,99358.95
2023-03-26T04:29:34.552Z,99356.28
2023-03-26T04:34:59.382Z,99360.73
2023-03-26T04:40:25.198Z,99350.34
2023-03-26T04:45:48.572Z,99350.92
2023-03-26T04:51:13.261Z,99355.28
2023-03-26T04:57:05.036Z,99352.28
2023-03-26T05:02:29.586Z,99349.24
2023-03-26T05:07:51.869Z,99350.47
2023-03-26T05:13:14.181Z,99351.54
2023-03-26T05:18:36.482Z,99352.39
2023-03-26T05:23:58.939Z,99344.16
2023-03-26T05:29:22.731Z,99347.80
2023-03-26T05:34:45.585Z,99356.52
2023-03-26T05:45:43.665Z,99347.94
2023-03-26T05:51:12.402Z,99340.14
2023-03-26T05:56:34.783Z,99353.86
2023-03-26T06:01:57.778Z,99349.38
2023-03-26T06:07:20.585Z,99351.55
2023-03-26T06:12:42.850Z,99359.17
2023-03-26T06:18:05.264Z,99353.22
2023-03-26T06:23:28.043Z,99346.94
2023-03-26T06:28:50.333Z,99359.45
2023-03-26T06:34:13.207Z,99366.92
2023-03-26T06:39:35.573Z,99365.48
2023-03-26T06:44:57.979Z,99362.10
2023-03-26T06:50:21.160Z,99374.46
2023-03-26T06:55:43.781Z,99368.37
2023-03-26T07:01:06.450Z,99393.60
2023-03-26T07:06:29.729Z,99392.41
2023-03-26T07:11:52.511Z,99387.16
2023-03-26T07:17:16.942Z,99388.67
2023-03-26T07:22:41.632Z,99392.55
2023-03-26T07:28:36.789Z,99423.58
2023-03-26T07:34:32.689Z,99407.44
2023-03-26T07:40:28.988Z,99408.14
2023-03-26T07:45:57.860Z,99419.12
2023-03-26T07:51:21.304Z,99402.60
2023-03-26T07:57:00.561Z,99405.14
2023-03-26T08:02:53.005Z,99409.39
2023-03-26T08:08:25.617Z,99408.20
2023-03-26T08:14:22.991Z,99412.56
2023-03-26T08:20:19.512Z,99418.62
2023-03-26T08:25:50.247Z,99411.59
2023-03-26T08:31:14.317Z,99422.70
2023-03-26T08:36:37.205Z,99426.94
2023-03-26T08:42:13.374Z,99419.66
2023-03-26T08:48:21.535Z,99429.03
2023-03-26T08:53:57.505Z,99437.41
2023-03-26T08:59:47.707Z,99439.59
2023-03-26T09:05:42.278Z,99428.56
2023-03-26T09:11:40.863Z,99438.48
2023-03-26T09:17:59.468Z,99447.44
2023-03-26T09:23:57.543Z,99442.25
2023-03-26T09:30:02.783Z,99436.48
2023-03-26T09:35:41.433Z,99440.44
2023-03-26T09:41:08.673Z,99446.74
2023-03-26T09:47:04.590Z,99442.53
2023-03-26T09:53:00.536Z,99461.27
2023-03-26T09:58:43.132Z,99462.11
2023-03-26T10:04:37.321Z,99451.45
2023-03-26T10:10:39.992Z,99446.98
2023-03-26T10:22:26.245Z,99456.88
2023-03-26T10:28:17.238Z,99455.57
2023-03-26T10:34:08.180Z,99460.88
2023-03-26T10:40:08.281Z,99435.27
2023-03-26T10:45:56.932Z,99443.80
2023-03-26T10:51:54.485Z,99456.52
2023-03-26T11:03:00.074Z,99440.04
2023-03-26T11:08:39.361Z,99454.67
2023-03-26T11:14:16.852Z,99471.00
2023-03-26T11:19:59.243Z,99456.80
2023-03-26T11:31:44.241Z,99455.50
2023-03-26T11:37:13.477Z,99444.94
2023-03-26T11:42:37.765Z,99466.76
2023-03-26T11:48:16.707Z,99448.41
2023-03-26T11:53:46.128Z,99455.52
2023-03-26T11:59:25.209Z,99468.63
2023-03-26T12:05:00.018Z,99461.67
2023-03-26T12:10:39.123Z,99473.98
2023-03-26T12:16:05.734Z,99455.75
2023-03-26T12:21:32.471Z,99478.51
2023-03-26T12:27:07.649Z,99449.02
2023-03-26T12:32:43.344Z,99463.12
2023-03-26T12:37:58.665Z,99474.58
2023-03-26T12:44:49.345Z,99481.00
2023-03-26T12:49:11.911Z,99459.81
2023-03-26T12:54:52.810Z,99461.78
2023-03-26T13:00:39.299Z,99466.05
2023-03-26T13:06:07.194Z,99454.23
2023-03-26T13:11:43.442Z,99447.09
2023-03-26T13:17:30.069Z,99442.48
2023-03-26T13:23:09.897Z,99441.53
2023-03-26T13:29:11.848Z,99448.97
2023-03-26T13:34:45.016Z,99447.59
2023-03-26T13:40:12.278Z,99445.72
2023-03-26T13:46:06.790Z,99432.91
2023-03-26T13:51:54.047Z,99439.78
2023-03-26T13:57:32.250Z,99455.50
2023-03-26T14:03:02.261Z,99448.02
2023-03-26T14:08:44.583Z,99440.23
2023-03-26T14:14:36.169Z,99452.09
2023-03-26T14:20:32.673Z,99433.27
2023-03-26T14:26:31.829Z,99433.04
2023-03-26T14:32:14.774Z,99427.33
2023-03-26T14:37:58.855Z,99423.88
2023-03-26T14:43:54.846Z,99426.38
2023-03-26T14:49:44.173Z,99427.17
2023-03-26T14:55:11.002Z,99426.01
2023-03-26T15:00:47.964Z,99426.22
2023-03-26T15:06:52.783Z,99432.70
2023-03-26T15:12:46.855Z,99445.55
2023-03-26T15:18:38.026Z,99443.77
2023-03-26T15:24:20.720Z,99437.08
2023-03-26T15:30:26.408Z,99441.77
2023-03-26T15:36:35.659Z,99443.55
2023-03-26T15:42:21.089Z,99433.66
2023-03-26T15:48:20.084Z,99432.22
2023-03-26T15:53:56.681Z,99436.28
2023-03-26T15:59:40.433Z,99435.48
2023-03-26T16:05:42.818Z,99449.29
2023-03-26T16:11:12.893Z,99449.30
2023-03-26T16:16:32.847Z,99452.63
2023-03-26T16:22:06.571Z,99456.97
2023-03-26T16:27:41.264Z,99457.25
2023-03-26T16:33:14.460Z,99454.27
2023-03-26T16:38:55.764Z,99457.28
2023-03-26T16:44:46.265Z,99459.48
2023-03-26T16:50:31.119Z,99471.17
2023-03-26T16:56:13.658Z,99477.34
2023-03-26T17:01:59.459Z,99465.91
2023-03-26T17:07:39.696Z,99477.77
2023-03-26T17:19:26.542Z,99475.06
2023-03-26T17:25:05.443Z,99494.00
2023-03-26T17:36:38.211Z,99500.59
2023-03-26T17:42:41.234Z,99510.48
2023-03-26T17:48:24.323Z,99510.33
2023-03-26T17:53:53.417Z,99510.03
2023-03-26T17:59:21.179Z,99513.31
2023-03-26T18:04:56.894Z,99511.65
2023-03-26T18:10:39.205Z,99514.52
2023-03-26T18:16:38.525Z,99511.59
2023-03-26T18:22:07.849Z,99511.32
2023-03-26T18:27:33.868Z,99503.23
2023-03-26T18:33:20.089Z,99500.64
2023-03-26T18:38:44.372Z,99499.45
2023-03-26T18:44:08.649Z,99498.29
2023-03-26T18:49:33.034Z,99494.06
2023-03-26T18:54:59.569Z,99497.44
2023-03-26T19:00:37.157Z,99518.11
2023-03-26T19:06:02.231Z,99513.27
2023-03-26T19:11:27.415Z,99527.00
2023-03-26T19:16:58.746Z,99516.33
2023-03-26T19:22:24.090Z,99523.11
2023-03-26T19:27:46.673Z,99531.38
2023-03-26T19:33:22.748Z,99530.34
2023-03-26T19:39:02.638Z,99541.43
2023-03-26T19:44:36.284Z,99535.61
2023-03-26T19:50:05.245Z,99537.62
2023-03-26T19:55:34.728Z,99547.47
2023-03-26T20:00:58.857Z,99551.80
2023-03-26T20:11:59.369Z,99550.37
2023-03-26T20:17:31.476Z,99555.75
2023-03-26T20:22:57.190Z,99552.76
2023-03-26T20:28:20.121Z,99556.00
2023-03-26T20:33:44.169Z,99562.41
2023-03-26T20:39:06.570Z,99558.22
2023-03-26T20:44:34.018Z,99555.81
2023-03-26T20:49:56.803Z,99548.00
2023-03-26T20:55:22.040Z,99546.45
2023-03-26T21:01:00.712Z,99557.91
2023-03-26T21:06:25.377Z,99559.03
2023-03-26T21:11:55.814Z,99556.63
2023-03-26T21:17:20.959Z,99563.90
2023-03-26T21:23:18.440Z,99572.16
2023-03-26T21:28:57.088Z,99575.66
2023-03-26T21:34:20.624Z,99574.55
2023-03-26T21:39:45.256Z,99573.17
2023-03-26T21:45:07.815Z,99573.90
2023-03-26T21:50:33.361Z,99574.73
2023-03-26T21:56:09.705Z,99577.23
2023-03-26T22:01:55.117Z,99589.55
2023-03-26T22:07:49.576Z,99584.44
2023-03-26T22:13:12.061Z,99581.80
2023-03-26T22:18:34.321Z,99584.81
2023-03-26T22:23:57.623Z,99588.39
2023-03-26T22:29:20.533Z,99584.09
2023-03-26T22:34:45.217Z,99584.42
2023-03-26T22:45:41.323Z,99581.86
2023-03-26T22:51:11.457Z,99587.20
2023-03-26T22:56:34.297Z,99593.90
2023-03-26T23:01:56.922Z,99583.09
2023-03-26T23:07:19.741Z,99586.95
2023-03-26T23:12:42.128Z,99577.48
2023-03-26T23:18:04.522Z,99572.91
2023-03-26T23:23:28.961Z,99580.13
2023-03-26T23:28:52.168Z,99572.13
2023-03-26T23:34:16.869Z,99578.87
2023-03-26T23:39:39.630Z,99569.09
2023-03-26T23:45:02.377Z,99570.30
2023-03-26T23:50:25.471Z,99565.11
2023-03-26T23:55:47.687Z,99569.82
